createdAt,value
2022-08-05T14:32:56.736Z,21.80
2022-08-05T14:36:59.058Z,23.20
2022-08-05T14:41:05.718Z,22.30
2022-08-05T14:45:09.083Z,22.00
2022-08-05T14:49:11.254Z,21.70
2022-08-05T14:53:13.265Z,21.60
2022-08-05T14:57:15.660Z,21.40
2022-08-05T15:01:37.111Z,21.60
2022-08-05T15:06:06.843Z,21.40
2022-08-05T15:10:04.302Z,21.20
2022-08-05T15:14:11.625Z,21.00
2022-08-05T15:18:35.373Z,20.90
2022-08-05T15:22:39.425Z,21.10
2022-08-05T15:26:41.426Z,20.70
2022-08-05T15:30:46.535Z,20.60
2022-08-05T15:34:48.800Z,20.60
2022-08-05T15:40:59.658Z,20.30
2022-08-05T15:43:20.187Z,20.20
2022-08-05T15:47:23.665Z,20.10
2022-08-05T15:52:09.951Z,20.00
2022-08-05T15:56:02.026Z,20.50
2022-08-05T16:00:08.284Z,19.80
2022-08-05T16:04:11.197Z,19.60
2022-08-05T16:08:16.085Z,19.20
2022-08-05T16:12:19.848Z,19.60
2022-08-05T16:16:25.188Z,19.60
2022-08-05T16:20:27.898Z,19.50
2022-08-05T16:24:39.865Z,19.50
2022-08-05T16:28:44.147Z,19.40
2022-08-05T16:32:46.109Z,19.30
2022-08-05T16:36:49.249Z,19.30
2022-08-05T16:40:55.271Z,19.10
2022-08-05T16:45:02.159Z,19.10
2022-08-05T16:49:24.233Z,18.90
2022-08-05T16:53:32.097Z,18.50
2022-08-05T16:57:53.371Z,18.50
2022-08-05T17:01:57.115Z,18.60
2022-08-05T17:06:00.563Z,18.20
2022-08-05T17:10:03.266Z,18.10
2022-08-05T17:14:06.427Z,18.10
2022-08-05T17:18:08.548Z,18.00
2022-08-05T17:22:17.758Z,17.80
2022-08-05T17:26:27.694Z,17.70
2022-08-05T17:30:30.218Z,18.00
2022-08-05T17:34:34.782Z,18.00
2022-08-05T17:38:36.952Z,17.90
2022-08-05T17:42:41.782Z,17.90
2022-08-05T17:46:51.782Z,17.80
2022-08-05T17:50:53.807Z,18.00
2022-08-05T17:54:56.525Z,17.70
2022-08-05T17:58:58.461Z,18.00
2022-08-05T18:03:00.459Z,17.60
2022-08-05T18:07:02.413Z,18.00
2022-08-05T18:11:04.495Z,18.20
2022-08-05T18:15:08.827Z,17.40
2022-08-05T18:19:11.182Z,17.60
2022-08-05T18:23:13.326Z,17.80
2022-08-05T18:27:18.446Z,17.60
2022-08-05T18:31:22.484Z,17.50
2022-08-05T18:35:49.516Z,17.40
2022-08-05T18:41:50.491Z,17.70
2022-08-05T18:44:09.009Z,17.50
2022-08-05T18:48:11.915Z,17.50
2022-08-05T18:52:41.574Z,17.40
2022-08-05T18:56:53.525Z,17.60
2022-08-05T19:00:55.747Z,17.50
2022-08-05T19:05:02.900Z,17.40
2022-08-05T19:09:21.622Z,17.40
2022-08-05T19:13:23.483Z,17.40
2022-08-05T19:17:59.419Z,17.20
2022-08-05T19:21:53.405Z,17.10
2022-08-05T19:26:02.143Z,17.30
2022-08-05T19:30:07.150Z,17.50
2022-08-05T19:34:11.896Z,17.20
2022-08-05T19:38:26.473Z,17.10
2022-08-05T19:42:35.627Z,16.80
2022-08-05T19:46:39.372Z,16.80
2022-08-05T19:50:41.772Z,16.80
2022-08-05T19:54:43.992Z,16.90
2022-08-05T19:58:53.593Z,16.60
2022-08-05T20:02:57.992Z,16.60
2022-08-05T20:07:00.533Z,16.30
2022-08-05T20:11:03.965Z,16.40
2022-08-05T20:15:08.673Z,16.40
2022-08-05T20:19:10.730Z,16.10
2022-08-05T20:23:13.026Z,16.40
2022-08-05T20:27:14.942Z,16.10
2022-08-05T20:31:21.873Z,16.30
2022-08-05T20:35:25.013Z,16.10
2022-08-05T20:39:30.161Z,15.90
2022-08-05T20:43:58.789Z,15.90
2022-08-05T20:48:00.478Z,16.10
2022-08-05T20:52:02.409Z,16.00
2022-08-05T20:56:08.767Z,16.00
2022-08-05T21:00:41.591Z,16.00
2022-08-05T21:04:36.364Z,15.70
2022-08-05T21:08:42.245Z,15.80
2022-08-05T21:12:57.881Z,16.00
2022-08-05T21:17:07.845Z,15.80
2022-08-05T21:21:09.809Z,15.50
2022-08-05T21:25:12.415Z,15.40
2022-08-05T21:29:16.787Z,15.30
2022-08-05T21:33:22.304Z,15.50
2022-08-05T21:37:26.451Z,15.30
2022-08-05T21:41:33.826Z,15.60
2022-08-05T21:45:56.500Z,15.40
2022-08-05T21:50:01.032Z,15.50
2022-08-05T21:54:04.171Z,15.10
2022-08-05T21:58:06.732Z,15.10
2022-08-05T22:02:12.346Z,15.10
2022-08-05T22:06:23.007Z,15.10
2022-08-05T22:10:37.362Z,15.00
2022-08-05T22:14:40.567Z,15.00
2022-08-05T22:18:48.947Z,14.80
2022-08-05T22:23:17.121Z,14.90
2022-08-05T22:28:09.298Z,14.90
2022-08-05T22:32:04.328Z,14.70
2022-08-05T22:36:14.633Z,14.90
2022-08-05T22:40:20.484Z,14.70
2022-08-05T22:44:23.672Z,14.90
2022-08-05T22:48:27.352Z,14.80
2022-08-05T22:52:32.271Z,14.70
2022-08-05T22:56:36.250Z,14.60
2022-08-05T23:00:42.130Z,14.70
2022-08-05T23:04:51.215Z,14.20
2022-08-05T23:08:54.357Z,14.70
2022-08-05T23:12:56.474Z,14.20
2022-08-05T23:17:24.215Z,14.20
2022-08-05T23:21:42.876Z,14.20
2022-08-05T23:25:53.629Z,14.60
2022-08-05T23:29:57.421Z,14.00
2022-08-05T23:34:06.097Z,14.00
2022-08-05T23:38:08.441Z,14.20
2022-08-05T23:42:14.730Z,14.10
2022-08-05T23:46:25.579Z,13.90
2022-08-05T23:50:28.384Z,13.90
2022-08-05T23:54:36.407Z,13.80
2022-08-05T23:58:40.231Z,13.80
